Time;durP1;ratioP1;P1;durP2;ratioP2;P2;SDS_P1;SDS_P2;PMS_P1;PMS_P2;Temp;Humidity;BMP_temperature;BMP_pressure;BME280_temperature;BME280_humidity;BME280_pressure;Samples;Min_cycle;Max_cycle;Signal;HPM_P1;HPM_P2
2022/06/03 00:00:10;;;;;;;13.77;7.70;;;7.70;95.70;;;;;;5063666;28;20054;-76
2022/06/03 00:02:56;;;;;;;16.38;7.57;;;7.70;95.70;;;;;;5088816;28;20157;-75
2022/06/03 00:05:52;;;;;;;18.50;8.32;;;7.70;95.70;;;;;;5085986;28;20066;-75
2022/06/03 00:08:51;;;;;;;17.38;7.15;;;7.60;95.60;;;;;;5086676;28;20027;-75
2022/06/03 00:11:37;;;;;;;14.90;8.00;;;7.50;95.60;;;;;;5084034;28;20119;-75
2022/06/03 00:14:29;;;;;;;15.63;7.65;;;7.50;95.70;;;;;;5086102;28;20748;-76
2022/06/03 00:17:09;;;;;;;19.85;7.85;;;7.50;95.80;;;;;;5090111;28;20514;-76
2022/06/03 00:20:09;;;;;;;18.20;8.65;;;7.40;95.60;;;;;;5086123;28;20043;-76
2022/06/03 00:22:44;;;;;;;20.08;8.52;;;7.40;95.70;;;;;;5080789;28;20040;-77
2022/06/03 00:25:40;;;;;;;15.43;8.35;;;7.30;95.70;;;;;;5084519;28;20024;-77
2022/06/03 00:28:14;;;;;;;22.27;9.13;;;7.40;95.80;;;;;;5086040;28;20034;-76
2022/06/03 00:30:59;;;;;;;17.65;8.50;;;7.40;96.00;;;;;;5089776;28;20028;-77
2022/06/03 00:33:35;;;;;;;13.43;8.70;;;7.30;95.80;;;;;;5088528;28;20028;-77
2022/06/03 00:36:19;;;;;;;17.65;8.65;;;7.30;95.80;;;;;;5083238;28;20152;-75
2022/06/03 00:38:58;;;;;;;19.63;8.40;;;7.30;95.90;;;;;;5093161;28;20032;-75
2022/06/03 00:41:35;;;;;;;17.73;8.60;;;7.40;96.20;;;;;;5088714;28;20352;-75
2022/06/03 00:44:30;;;;;;;14.40;8.45;;;7.40;96.30;;;;;;5093437;28;20127;-75
2022/06/03 00:47:36;;;;;;;15.88;8.18;;;7.30;96.10;;;;;;5093061;28;20379;-74
2022/06/03 00:50:35;;;;;;;18.75;8.40;;;7.20;96.10;;;;;;5088822;28;20032;-75
2022/06/03 00:53:06;;;;;;;18.15;8.50;;;7.20;96.30;;;;;;5093806;28;20054;-75
2022/06/03 00:55:50;;;;;;;17.25;8.93;;;7.10;96.30;;;;;;5092809;28;20443;-75
2022/06/03 00:58:30;;;;;;;20.52;8.73;;;7.10;96.30;;;;;;5093836;28;20475;-75
2022/06/03 01:01:10;;;;;;;13.80;8.65;;;7.00;96.10;;;;;;5089271;28;20043;-75
2022/06/03 01:03:43;;;;;;;17.42;9.25;;;6.90;96.20;;;;;;5089968;28;20146;-75
2022/06/03 01:06:28;;;;;;;18.17;8.85;;;6.90;96.20;;;;;;5090251;28;20028;-75
2022/06/03 01:09:09;;;;;;;17.52;8.35;;;7.00;96.30;;;;;;5092999;28;20039;-75
2022/06/03 01:12:13;;;;;;;18.50;8.40;;;6.90;96.20;;;;;;5090396;28;20032;-75
2022/06/03 01:15:09;;;;;;;17.58;9.07;;;6.80;96.10;;;;;;5077460;28;20055;-74
2022/06/03 01:18:04;;;;;;;16.48;8.57;;;6.90;96.30;;;;;;5091281;28;20024;-75
2022/06/03 01:21:04;;;;;;;18.25;9.05;;;6.80;96.10;;;;;;5085279;28;20111;-75
2022/06/03 01:23:49;;;;;;;18.00;8.63;;;6.70;96.10;;;;;;5088874;28;20390;-75
2022/06/03 01:26:48;;;;;;;17.23;9.50;;;6.70;96.10;;;;;;5087282;28;20048;-75
2022/06/03 01:29:14;;;;;;;26.08;10.02;;;6.70;96.20;;;;;;5091619;28;20039;-75
2022/06/03 01:32:17;;;;;;;18.05;9.75;;;6.60;96.20;;;;;;5092409;28;20048;-75
2022/06/03 01:35:25;;;;;;;19.15;8.73;;;6.60;96.20;;;;;;5091973;28;20032;-75
2022/06/03 01:38:13;;;;;;;16.55;8.60;;;6.60;96.20;;;;;;5091038;28;20039;-75
2022/06/03 01:41:05;;;;;;;23.73;9.20;;;6.50;96.20;;;;;;5089196;28;20066;-74
2022/06/03 01:43:30;;;;;;;17.27;8.98;;;6.50;96.20;;;;;;5085365;28;20032;-75
2022/06/03 01:46:24;;;;;;;17.30;9.00;;;6.50;96.30;;;;;;5089825;28;20546;-75
2022/06/03 01:49:27;;;;;;;20.80;9.75;;;6.50;96.30;;;;;;5090344;28;20020;-75
2022/06/03 01:52:29;;;;;;;17.08;9.02;;;6.50;96.30;;;;;;5087815;28;20039;-75
2022/06/03 01:55:22;;;;;;;16.20;9.07;;;6.40;96.30;;;;;;5082602;28;20048;-75
2022/06/03 01:58:14;;;;;;;26.35;10.45;;;6.40;96.40;;;;;;5091408;28;20056;-75
2022/06/03 02:01:03;;;;;;;20.25;9.98;;;6.50;96.60;;;;;;5077438;28;20044;-74
2022/06/03 02:03:54;;;;;;;18.35;10.80;;;6.50;96.60;;;;;;5092523;28;20089;-75
2022/06/03 02:07:07;;;;;;;17.15;9.80;;;6.40;96.40;;;;;;5086246;28;20467;-75
2022/06/03 02:09:41;;;;;;;16.92;9.43;;;6.30;96.50;;;;;;5089071;28;20031;-74
2022/06/03 02:12:25;;;;;;;22.48;9.88;;;6.30;96.50;;;;;;5090079;28;20036;-75
2022/06/03 02:15:28;;;;;;;23.00;10.32;;;6.30;96.50;;;;;;5091005;28;20039;-75
2022/06/03 02:18:18;;;;;;;23.83;11.57;;;6.20;96.50;;;;;;5084364;28;20078;-75
2022/06/03 02:21:20;;;;;;;23.13;11.30;;;6.20;96.50;;;;;;5080329;28;20395;-75
2022/06/03 02:24:24;;;;;;;22.85;10.10;;;6.20;96.60;;;;;;5090006;28;20036;-74
2022/06/03 02:27:04;;;;;;;19.10;9.85;;;6.10;96.50;;;;;;5091160;28;20024;-75
2022/06/03 02:32:29;;;;;;;19.73;10.18;;;6.20;96.70;;;;;;5090803;28;20674;-75
2022/06/03 02:35:02;;;;;;;18.80;8.90;;;6.10;96.60;;;;;;5081058;28;20139;-74
2022/06/03 02:38:07;;;;;;;20.52;10.50;;;6.10;96.70;;;;;;5090982;28;21338;-75
2022/06/03 02:41:18;;;;;;;15.88;9.23;;;6.10;96.80;;;;;;5082882;28;20604;-75
2022/06/03 02:44:26;;;;;;;19.98;10.23;;;6.10;96.70;;;;;;5092303;28;20016;-75
2022/06/03 02:47:38;;;;;;;18.73;10.30;;;6.10;96.80;;;;;;5089598;28;20039;-75
2022/06/03 02:50:15;;;;;;;26.77;11.60;;;6.10;96.70;;;;;;5051244;28;20387;-75
2022/06/03 02:53:36;;;;;;;23.27;10.68;;;6.00;96.80;;;;;;5090878;28;20137;-75
2022/06/03 02:56:26;;;;;;;22.75;9.88;;;6.00;96.90;;;;;;5072431;28;20036;-75
2022/06/03 02:59:29;;;;;;;22.90;10.32;;;6.10;96.90;;;;;;5090083;28;20032;-75
2022/06/03 03:02:26;;;;;;;30.52;10.27;;;6.10;96.90;;;;;;5088925;28;20034;-75
2022/06/03 03:05:22;;;;;;;17.58;9.95;;;6.10;96.90;;;;;;5089233;28;20348;-75
2022/06/03 03:08:17;;;;;;;18.02;10.55;;;6.10;96.80;;;;;;5089226;28;20097;-75
2022/06/03 03:11:07;;;;;;;21.52;10.40;;;6.00;96.90;;;;;;5084341;28;20036;-75
2022/06/03 03:14:06;;;;;;;22.13;10.75;;;6.00;96.90;;;;;;5089024;28;20105;-75
2022/06/03 03:17:02;;;;;;;17.92;10.15;;;6.00;96.90;;;;;;5090329;28;20119;-74
2022/06/03 03:19:37;;;;;;;21.27;10.40;;;5.90;96.90;;;;;;5089319;28;20085;-75
2022/06/03 03:22:05;;;;;;;20.95;10.05;;;6.00;96.90;;;;;;5089340;28;20063;-75
2022/06/03 03:25:02;;;;;;;18.30;10.15;;;5.90;96.90;;;;;;5087953;28;20033;-74
2022/06/03 03:28:09;;;;;;;18.55;9.32;;;5.90;96.90;;;;;;5087821;28;20086;-75
2022/06/03 03:30:35;;;;;;;18.60;10.05;;;5.90;97.00;;;;;;5087692;28;20478;-75
2022/06/03 03:33:15;;;;;;;22.45;11.40;;;5.90;96.90;;;;;;5088982;28;20024;-75
2022/06/03 03:36:09;;;;;;;19.63;10.20;;;6.00;97.00;;;;;;5084113;28;20028;-75
2022/06/03 03:39:12;;;;;;;15.93;9.45;;;6.00;97.00;;;;;;5081919;28;20048;-75
2022/06/03 03:42:19;;;;;;;23.05;9.95;;;6.00;96.90;;;;;;5088788;28;20455;-75
2022/06/03 03:45:12;;;;;;;17.27;9.23;;;6.00;96.90;;;;;;5087738;28;20421;-75
2022/06/03 03:48:10;;;;;;;20.20;9.95;;;6.00;96.90;;;;;;5091179;28;20031;-74
2022/06/03 03:51:07;;;;;;;19.58;9.52;;;6.00;96.90;;;;;;5085768;28;20032;-75
2022/06/03 03:54:07;;;;;;;15.60;9.02;;;6.10;97.00;;;;;;5086040;28;20036;-75
2022/06/03 03:56:51;;;;;;;20.03;10.10;;;6.10;97.00;;;;;;5082673;28;20027;-75
2022/06/03 03:59:53;;;;;;;18.88;9.85;;;6.10;97.00;;;;;;5088960;28;20306;-75
2022/06/03 04:02:42;;;;;;;21.70;10.07;;;6.20;97.10;;;;;;5074950;28;20034;-75
2022/06/03 04:05:45;;;;;;;20.70;10.73;;;6.20;97.00;;;;;;5087918;28;20107;-75
2022/06/03 04:08:42;;;;;;;23.52;11.20;;;6.40;97.20;;;;;;5085819;28;20366;-75
2022/06/03 04:11:26;;;;;;;23.63;10.27;;;6.40;97.20;;;;;;5085183;28;20119;-75
2022/06/03 04:14:29;;;;;;;23.73;12.00;;;6.50;97.20;;;;;;5089371;28;20024;-75
2022/06/03 04:17:10;;;;;;;26.63;11.10;;;6.50;97.10;;;;;;5088637;28;20035;-75
2022/06/03 04:20:03;;;;;;;21.75;10.80;;;6.50;97.20;;;;;;5087096;28;20047;-70
2022/06/03 04:23:00;;;;;;;23.02;10.50;;;6.60;97.30;;;;;;5079495;28;20050;-71
2022/06/03 04:25:35;;;;;;;25.88;11.18;;;6.80;97.40;;;;;;5088667;28;20039;-71
2022/06/03 04:28:34;;;;;;;23.48;11.93;;;6.80;97.30;;;;;;5087535;28;20464;-72
2022/06/03 04:31:18;;;;;;;19.30;10.80;;;6.90;97.40;;;;;;5081503;28;20071;-72
2022/06/03 04:34:14;;;;;;;28.65;11.65;;;6.90;97.40;;;;;;5086261;28;20040;-72
2022/06/03 04:37:01;;;;;;;22.52;11.32;;;7.00;97.30;;;;;;5079766;28;20364;-71
2022/06/03 04:40:04;;;;;;;27.45;11.52;;;7.10;97.40;;;;;;5087613;28;20020;-72
2022/06/03 04:43:01;;;;;;;22.88;11.52;;;7.10;97.40;;;;;;5083785;28;20465;-72
2022/06/03 04:46:07;;;;;;;24.17;12.77;;;7.30;97.50;;;;;;5084428;28;20043;-72
2022/06/03 04:48:50;;;;;;;27.75;13.70;;;7.50;97.80;;;;;;5084691;28;20039;-72
2022/06/03 04:51:37;;;;;;;32.60;14.55;;;7.70;97.80;;;;;;5079438;28;20032;-72
2022/06/03 04:54:21;;;;;;;33.13;14.15;;;7.80;97.70;;;;;;5087781;28;20182;-72
2022/06/03 04:57:08;;;;;;;39.45;16.02;;;8.00;97.90;;;;;;5078513;28;20028;-71
2022/06/03 05:00:05;;;;;;;42.28;17.70;;;8.20;98.00;;;;;;5088271;28;20032;-72
2022/06/03 05:03:17;;;;;;;45.25;17.38;;;8.60;98.00;;;;;;5071092;28;20384;-72
2022/06/03 05:06:18;;;;;;;39.50;18.67;;;8.70;97.80;;;;;;5084210;28;20017;-72
2022/06/03 05:09:13;;;;;;;38.70;19.20;;;9.00;97.90;;;;;;5081598;28;20035;-72
2022/06/03 05:12:04;;;;;;;38.20;18.73;;;9.00;97.50;;;;;;5083548;28;20520;-71
2022/06/03 05:14:30;;;;;;;42.20;18.85;;;9.10;97.60;;;;;;5087130;28;20741;-71
2022/06/03 05:17:21;;;;;;;42.53;19.75;;;9.20;97.50;;;;;;5090330;28;20555;-71
2022/06/03 05:20:12;;;;;;;43.10;17.70;;;9.20;97.40;;;;;;5088509;28;20499;-71
2022/06/03 05:22:51;;;;;;;42.17;16.20;;;9.40;97.50;;;;;;5079346;28;20033;-71
2022/06/03 05:25:54;;;;;;;31.88;14.52;;;9.60;97.30;;;;;;5090914;28;20414;-72
2022/06/03 05:28:51;;;;;;;32.55;13.52;;;9.80;96.90;;;;;;5094264;28;20482;-72
2022/06/03 05:31:34;;;;;;;34.17;14.73;;;9.90;96.50;;;;;;5087045;28;20119;-72
2022/06/03 05:34:33;;;;;;;29.27;13.82;;;10.00;96.20;;;;;;5093682;28;20446;-72
2022/06/03 05:37:37;;;;;;;28.17;13.00;;;10.20;95.90;;;;;;5091993;28;20046;-72
2022/06/03 05:40:22;;;;;;;25.80;10.73;;;10.40;95.40;;;;;;5044577;28;20531;-72
2022/06/03 05:43:14;;;;;;;19.67;10.48;;;10.50;94.90;;;;;;5045377;28;20037;-72
2022/06/03 05:46:05;;;;;;;18.52;10.35;;;10.60;93.90;;;;;;5075775;28;20772;-72
2022/06/03 05:49:06;;;;;;;25.60;9.73;;;10.90;93.10;;;;;;5092051;28;20032;-72
2022/06/03 05:52:11;;;;;;;17.55;8.50;;;11.00;92.90;;;;;;5087051;28;20068;-72
2022/06/03 05:55:07;;;;;;;17.55;7.53;;;11.20;92.50;;;;;;5060976;28;20507;-72
2022/06/03 05:58:01;;;;;;;12.40;7.43;;;11.30;91.10;;;;;;5088071;28;20020;-71
2022/06/03 06:00:32;;;;;;;10.50;6.13;;;11.40;91.00;;;;;;5093691;28;20028;-72
2022/06/03 06:03:29;;;;;;;14.02;5.53;;;11.50;91.10;;;;;;5093901;28;20024;-72
2022/06/03 06:06:14;;;;;;;15.77;5.53;;;11.60;90.50;;;;;;5089321;28;20035;-71
2022/06/03 06:08:55;;;;;;;8.73;4.90;;;11.70;89.80;;;;;;5092293;28;20039;-72
2022/06/03 06:11:40;;;;;;;8.02;4.68;;;11.90;89.00;;;;;;5090491;28;20112;-72
2022/06/03 06:14:14;;;;;;;7.68;3.88;;;12.10;88.30;;;;;;5091823;28;20074;-72
2022/06/03 06:16:41;;;;;;;10.32;3.40;;;12.20;86.90;;;;;;5093551;28;20430;-71
2022/06/03 06:19:16;;;;;;;8.02;4.25;;;12.30;86.70;;;;;;5088135;28;20071;-71
2022/06/03 06:22:25;;;;;;;10.68;3.83;;;12.60;87.20;;;;;;5093134;28;20443;-71
2022/06/03 06:25:11;;;;;;;7.82;3.50;;;12.70;87.10;;;;;;5035829;28;20033;-72
2022/06/03 06:28:00;;;;;;;8.98;3.35;;;12.80;87.30;;;;;;5030927;28;20029;-72
2022/06/03 06:30:47;;;;;;;7.68;3.55;;;12.90;86.30;;;;;;5075165;28;20047;-72
2022/06/03 06:33:40;;;;;;;7.15;3.00;;;13.10;84.80;;;;;;5090150;28;20056;-72
2022/06/03 06:36:30;;;;;;;6.78;2.97;;;13.30;84.60;;;;;;5092938;28;20032;-71
2022/06/03 06:39:33;;;;;;;5.15;2.60;;;13.50;83.80;;;;;;5093081;28;20021;-72
2022/06/03 06:42:27;;;;;;;8.50;1.98;;;13.60;81.20;;;;;;5091853;28;20157;-72
2022/06/03 06:45:17;;;;;;;6.35;2.10;;;13.80;81.00;;;;;;5092769;28;20031;-75
2022/06/03 06:48:09;;;;;;;5.30;1.80;;;13.80;79.70;;;;;;5091816;28;20097;-75
2022/06/03 06:50:46;;;;;;;3.75;1.98;;;14.00;77.40;;;;;;5090925;28;20054;-72
2022/06/03 06:53:34;;;;;;;5.43;2.15;;;14.10;77.40;;;;;;5089887;28;20067;-71
2022/06/03 06:56:21;;;;;;;5.32;2.00;;;14.20;76.90;;;;;;5092341;28;20024;-72
2022/06/03 06:59:01;;;;;;;7.13;2.53;;;14.40;77.90;;;;;;5093005;28;20034;-72
2022/06/03 07:01:36;;;;;;;4.38;1.75;;;14.60;76.70;;;;;;5090879;28;20103;-71
2022/06/03 07:04:08;;;;;;;6.93;1.77;;;14.70;76.80;;;;;;5092448;28;20036;-72
2022/06/03 07:06:33;;;;;;;3.75;1.90;;;14.80;75.90;;;;;;5091868;28;20119;-72
2022/06/03 07:09:11;;;;;;;4.85;2.00;;;15.00;75.70;;;;;;5071772;28;20099;-72
2022/06/03 07:11:52;;;;;;;5.55;2.00;;;15.30;75.90;;;;;;5085312;28;20036;-72
2022/06/03 07:14:20;;;;;;;;;;;15.50;75.70;;;;;;5082961;28;20023;-72
2022/06/03 07:20:16;;;;;;;6.95;2.17;;;15.70;74.10;;;;;;5090702;28;20486;-72
2022/06/03 07:22:51;;;;;;;6.40;1.85;;;16.00;74.10;;;;;;5090154;28;20024;-72
2022/06/03 07:25:25;;;;;;;5.32;1.90;;;16.10;73.30;;;;;;5089117;28;20544;-72
2022/06/03 07:28:27;;;;;;;4.75;1.50;;;16.20;70.90;;;;;;5082323;28;20047;-72
2022/06/03 07:31:16;;;;;;;7.45;2.05;;;16.10;71.60;;;;;;5092234;28;20042;-72
2022/06/03 07:33:57;;;;;;;5.80;1.83;;;16.40;70.90;;;;;;5091487;28;20490;-72
2022/06/03 07:36:54;;;;;;;4.13;1.75;;;16.90;72.10;;;;;;5091855;28;20036;-72
2022/06/03 07:39:37;;;;;;;4.47;1.52;;;16.90;69.30;;;;;;5080375;28;20040;-72
2022/06/03 07:42:28;;;;;;;3.38;1.60;;;17.10;68.80;;;;;;5089747;28;20040;-72
2022/06/03 07:45:04;;;;;;;;;;;17.20;67.90;;;;;;5092208;28;20111;-72
2022/06/03 07:47:32;;;;;;;3.65;1.73;;;17.20;65.20;;;;;;5091966;28;19904;-72
2022/06/03 07:50:05;;;;;;;4.40;1.70;;;17.00;66.70;;;;;;5090537;28;20028;-72
2022/06/03 07:52:41;;;;;;;4.88;1.42;;;17.30;67.60;;;;;;5091338;28;20498;-72
2022/06/03 07:55:12;;;;;;;4.68;1.48;;;17.60;65.40;;;;;;5087550;28;20035;-72
2022/06/03 07:57:38;;;;;;;5.63;1.52;;;17.80;67.00;;;;;;5091036;28;20035;-72
2022/06/03 08:00:12;;;;;;;2.17;1.30;;;18.00;65.00;;;;;;5087850;28;20024;-72
2022/06/03 08:02:37;;;;;;;3.63;1.75;;;18.00;62.80;;;;;;5086816;28;20084;-72
2022/06/03 08:05:12;;;;;;;4.00;1.23;;;18.00;61.90;;;;;;5085661;28;20036;-72
2022/06/03 08:10:57;;;;;;;3.22;1.40;;;18.00;62.00;;;;;;5083464;28;20443;-72
2022/06/03 08:13:31;;;;;;;2.75;1.08;;;18.40;62.60;;;;;;5089127;28;20039;-72
2022/06/03 08:16:05;;;;;;;3.33;1.42;;;18.30;61.50;;;;;;5090177;28;20540;-72
2022/06/03 08:18:40;;;;;;;4.80;1.30;;;18.60;61.10;;;;;;5091558;28;20028;-72
2022/06/03 08:21:09;;;;;;;3.00;1.42;;;18.60;61.80;;;;;;5091551;28;20471;-72
2022/06/03 08:23:35;;;;;;;1.50;1.05;;;18.70;59.00;;;;;;5090854;28;20471;-72
2022/06/03 08:26:09;;;;;;;3.40;1.35;;;19.10;59.90;;;;;;5087721;28;20032;-72
2022/06/03 08:28:38;;;;;;;6.45;1.45;;;19.30;61.50;;;;;;5085245;28;20044;-72
2022/06/03 08:31:06;;;;;;;1.77;1.10;;;19.00;60.40;;;;;;5089851;28;20048;-72
2022/06/03 08:33:47;;;;;;;4.03;1.45;;;19.30;61.20;;;;;;5091461;28;20043;-72
2022/06/03 08:36:18;;;;;;;3.05;1.17;;;19.30;59.00;;;;;;5088684;28;20106;-72
2022/06/03 08:38:52;;;;;;;1.15;1.02;;;19.80;60.20;;;;;;5091276;28;20043;-72
2022/06/03 08:41:38;;;;;;;2.70;1.23;;;19.50;57.20;;;;;;5087967;28;20035;-72
2022/06/03 08:44:25;;;;;;;4.68;1.63;;;19.60;56.10;;;;;;5088967;28;20114;-72
2022/06/03 08:47:19;;;;;;;2.80;1.30;;;19.90;54.70;;;;;;5090463;28;20039;-72
2022/06/03 08:49:59;;;;;;;4.63;1.55;;;20.20;53.70;;;;;;5077506;28;20419;-72
2022/06/03 08:52:37;;;;;;;2.30;1.20;;;19.50;55.10;;;;;;5089368;28;20036;-72
2022/06/03 08:55:21;;;;;;;4.55;1.10;;;20.10;56.30;;;;;;5090131;28;20487;-72
2022/06/03 08:57:51;;;;;;;3.47;1.27;;;20.00;55.10;;;;;;5090608;28;20054;-72
2022/06/03 09:00:22;;;;;;;3.35;1.30;;;20.40;53.30;;;;;;5094562;28;20024;-72
2022/06/03 09:02:54;;;;;;;2.30;0.80;;;20.40;53.50;;;;;;5091879;28;20382;-72
2022/06/03 09:05:30;;;;;;;2.55;0.90;;;20.70;51.60;;;;;;5089898;28;20047;-72
2022/06/03 09:08:19;;;;;;;2.40;1.05;;;20.80;47.70;;;;;;5091849;28;20032;-72
2022/06/03 09:11:00;;;;;;;3.72;0.95;;;20.80;48.50;;;;;;5088530;28;20052;-73
2022/06/03 09:13:39;;;;;;;1.67;0.88;;;20.90;49.90;;;;;;5093235;28;20031;-72
2022/06/03 09:16:08;;;;;;;1.63;0.80;;;20.60;45.70;;;;;;5093957;28;20047;-72
2022/06/03 09:21:41;;;;;;;2.35;0.80;;;20.80;46.40;;;;;;5094568;28;20046;-72
2022/06/03 09:24:19;;;;;;;3.67;0.77;;;20.90;43.90;;;;;;5089593;28;20028;-73
2022/06/03 09:26:49;;;;;;;0.85;0.63;;;21.10;47.10;;;;;;5091957;28;20054;-72
2022/06/03 09:29:15;;;;;;;1.48;0.70;;;21.30;48.00;;;;;;5094094;28;20031;-72
2022/06/03 09:32:01;;;;;;;1.67;0.90;;;21.00;45.50;;;;;;5082788;28;20064;-72
2022/06/03 09:34:38;;;;;;;3.72;0.70;;;21.40;45.30;;;;;;5091776;28;20024;-72
2022/06/03 09:37:04;;;;;;;1.63;0.60;;;21.60;44.20;;;;;;5092025;28;20055;-72
2022/06/03 09:39:32;;;;;;;0.60;0.60;;;21.70;47.20;;;;;;5093314;28;20123;-72
2022/06/03 09:41:59;;;;;;;2.25;0.90;;;21.40;43.10;;;;;;5093866;28;20372;-72
2022/06/03 09:44:26;;;;;;;1.27;0.80;;;21.20;44.90;;;;;;5093645;28;20024;-74
2022/06/03 09:47:00;;;;;;;0.52;0.52;;;21.20;45.60;;;;;;5092200;28;20036;-74
2022/06/03 09:49:28;;;;;;;1.80;0.65;;;21.50;39.70;;;;;;5092517;28;20043;-72
2022/06/03 09:51:59;;;;;;;2.88;0.82;;;21.70;42.60;;;;;;5086302;28;20430;-73
2022/06/03 09:54:37;;;;;;;2.10;0.80;;;21.60;44.50;;;;;;5092942;28;20133;-73
2022/06/03 09:57:26;;;;;;;2.72;1.00;;;21.90;45.60;;;;;;5093425;28;20029;-72
2022/06/03 10:00:00;;;;;;;2.78;0.82;;;22.00;44.20;;;;;;5093094;28;20046;-73
2022/06/03 10:02:27;;;;;;;1.25;0.70;;;22.20;41.90;;;;;;5086468;28;20039;-73
2022/06/03 10:04:53;;;;;;;4.35;0.90;;;22.50;43.50;;;;;;5093331;28;20024;-73
2022/06/03 10:07:19;;;;;;;2.15;0.80;;;22.60;44.90;;;;;;5086265;28;20034;-73
2022/06/03 10:12:56;;;;;;;1.77;0.70;;;22.50;39.20;;;;;;5093427;28;20112;-73
2022/06/03 10:15:39;;;;;;;2.10;0.73;;;22.90;40.60;;;;;;5093128;28;20127;-73
2022/06/03 10:18:12;;;;;;;1.88;0.75;;;22.70;42.10;;;;;;5093228;28;20052;-73
2022/06/03 10:20:38;;;;;;;1.67;0.90;;;22.80;42.00;;;;;;5091314;28;20032;-73
2022/06/03 10:23:06;;;;;;;1.90;0.73;;;23.40;41.50;;;;;;5091041;28;20032;-73
2022/06/03 10:25:31;;;;;;;2.40;0.88;;;23.50;42.20;;;;;;5091900;28;20474;-73
2022/06/03 10:28:03;;;;;;;1.42;0.70;;;24.10;45.00;;;;;;5093084;28;20027;-73
2022/06/03 10:30:31;;;;;;;2.40;0.70;;;24.30;42.10;;;;;;5092835;28;20024;-73
2022/06/03 10:32:57;;;;;;;2.97;0.95;;;24.20;43.60;;;;;;5092470;28;20051;-73
2022/06/03 10:35:27;;;;;;;2.83;0.90;;;24.50;45.50;;;;;;5091343;28;20028;-73
2022/06/03 10:37:56;;;;;;;2.05;0.90;;;24.90;46.60;;;;;;5085667;28;20028;-73
2022/06/03 10:40:24;;;;;;;1.65;0.80;;;23.70;41.80;;;;;;5091572;28;20024;-73
2022/06/03 10:42:55;;;;;;;0.98;0.80;;;23.70;44.30;;;;;;5089703;28;20127;-74
2022/06/03 10:45:30;;;;;;;2.00;0.77;;;23.90;42.00;;;;;;5087801;28;20021;-74
2022/06/03 10:47:56;;;;;;;2.13;1.00;;;24.00;41.50;;;;;;5088991;28;20039;-73
2022/06/03 10:50:35;;;;;;;2.25;0.85;;;23.90;43.40;;;;;;5091189;28;20040;-73
2022/06/03 11:01:40;;;;;;;1.60;0.73;;;24.00;43.80;;;;;;5091002;28;20039;-73
2022/06/03 11:04:05;;;;;;;1.50;1.00;;;24.20;40.60;;;;;;5091504;28;20030;-74
2022/06/03 11:06:38;;;;;;;2.85;0.80;;;24.60;40.50;;;;;;5085845;28;20033;-73
2022/06/03 11:09:08;;;;;;;0.77;0.52;;;24.00;42.20;;;;;;5082367;28;20031;-74
2022/06/03 11:11:38;;;;;;;1.60;0.80;;;24.70;43.20;;;;;;5091953;28;20060;-73
2022/06/03 11:14:32;;;;;;;1.80;0.70;;;24.60;43.40;;;;;;5092126;28;20078;-73
2022/06/03 11:16:58;;;;;;;1.55;0.73;;;24.70;42.80;;;;;;5080026;28;20617;-73
2022/06/03 11:19:23;;;;;;;1.67;0.70;;;25.10;40.80;;;;;;5090855;28;20028;-73
2022/06/03 11:22:11;;;;;;;1.58;0.90;;;24.80;38.70;;;;;;5088710;28;20443;-73
2022/06/03 11:24:37;;;;;;;1.88;0.80;;;25.50;39.10;;;;;;5088624;28;20482;-73
2022/06/03 11:27:08;;;;;;;2.33;0.77;;;25.70;39.50;;;;;;5089351;28;20055;-73
2022/06/03 11:29:37;;;;;;;4.47;0.85;;;25.20;39.40;;;;;;5091730;28;20036;-73
2022/06/03 11:32:05;;;;;;;3.38;0.90;;;24.50;40.10;;;;;;5091660;28;20032;-73
2022/06/03 11:34:39;;;;;;;1.02;0.60;;;24.40;39.20;;;;;;5088150;28;20031;-73
2022/06/03 11:37:23;;;;;;;3.05;0.93;;;25.30;39.40;;;;;;5086695;28;20032;-73
2022/06/03 11:40:00;;;;;;;1.48;0.63;;;25.50;40.00;;;;;;5078086;28;20109;-73
2022/06/03 11:42:42;;;;;;;2.17;0.70;;;24.70;39.90;;;;;;5088747;28;20378;-73
2022/06/03 11:45:21;;;;;;;3.90;0.88;;;24.50;43.80;;;;;;5090782;28;20036;-73
2022/06/03 11:47:56;;;;;;;1.42;0.88;;;23.80;42.80;;;;;;5091489;28;20028;-72
2022/06/03 11:50:31;;;;;;;1.08;0.57;;;24.80;39.10;;;;;;5087980;28;20447;-73
2022/06/03 11:52:58;;;;;;;1.65;0.70;;;25.40;37.70;;;;;;5091492;28;20090;-73
2022/06/03 11:55:28;;;;;;;1.00;0.60;;;24.90;39.30;;;;;;5090787;28;20028;-74
2022/06/03 11:58:04;;;;;;;1.02;0.57;;;24.70;39.80;;;;;;5091893;28;20161;-73
2022/06/03 12:00:37;;;;;;;3.55;0.90;;;25.00;42.20;;;;;;5090545;28;20035;-71
2022/06/03 12:03:22;;;;;;;1.20;0.85;;;25.20;44.80;;;;;;5090892;28;20028;-71
2022/06/03 12:05:57;;;;;;;2.53;0.70;;;24.50;41.80;;;;;;5081322;28;20040;-70
2022/06/03 12:08:42;;;;;;;1.10;0.60;;;24.60;43.60;;;;;;5089699;28;20371;-70
2022/06/03 12:14:35;;;;;;;1.67;0.77;;;26.50;42.30;;;;;;5091275;28;20035;-71
2022/06/03 12:17:12;;;;;;;2.58;0.88;;;26.70;35.60;;;;;;5091218;28;20036;-71
2022/06/03 12:19:48;;;;;;;1.38;0.70;;;27.00;36.30;;;;;;5087695;28;20026;-71
2022/06/03 12:22:32;;;;;;;2.42;0.82;;;27.30;36.00;;;;;;5091105;28;20048;-71
2022/06/03 12:24:59;;;;;;;2.63;0.68;;;26.50;37.00;;;;;;5086202;28;20024;-71
2022/06/03 12:27:35;;;;;;;2.13;0.80;;;25.80;37.50;;;;;;5091308;28;20421;-71
2022/06/03 12:30:03;;;;;;;1.48;0.70;;;25.70;38.60;;;;;;5091469;28;20028;-71
2022/06/03 12:32:31;;;;;;;1.48;0.60;;;26.20;37.90;;;;;;5092598;28;20062;-71
2022/06/03 12:35:35;;;;;;;0.98;0.60;;;26.70;38.20;;;;;;5093033;28;20052;-72
2022/06/03 12:38:19;;;;;;;1.25;0.80;;;27.50;37.10;;;;;;5093362;28;20081;-72
2022/06/03 12:40:49;;;;;;;1.67;0.75;;;26.80;35.90;;;;;;5094560;28;20032;-72
2022/06/03 12:43:30;;;;;;;;;;;26.20;35.70;;;;;;5095931;28;20047;-72
2022/06/03 12:46:10;;;;;;;4.65;0.90;;;27.00;34.30;;;;;;5083622;28;19913;-71
2022/06/03 12:48:48;;;;;;;2.97;0.80;;;27.70;34.50;;;;;;5088504;28;20034;-72
2022/06/03 12:51:28;;;;;;;1.58;0.80;;;27.70;39.20;;;;;;5089635;28;20078;-72
2022/06/03 12:53:58;;;;;;;;;;;27.00;38.00;;;;;;5093837;28;20052;-71
2022/06/03 12:56:37;;;;;;;4.55;0.77;;;27.70;37.50;;;;;;5094768;28;19904;-72
2022/06/03 12:59:38;;;;;;;1.13;0.70;;;28.20;37.80;;;;;;5092745;28;20031;-74
2022/06/03 13:02:22;;;;;;;1.17;0.68;;;29.00;33.10;;;;;;5081409;28;20108;-74
2022/06/03 13:04:54;;;;;;;2.67;0.88;;;28.30;34.10;;;;;;5094887;28;20031;-74
2022/06/03 13:07:25;;;;;;;1.25;0.77;;;28.70;35.30;;;;;;5093726;28;20024;-72
2022/06/03 13:10:03;;;;;;;1.02;0.80;;;28.60;32.50;;;;;;5092422;28;20028;-71
2022/06/03 13:12:43;;;;;;;1.27;0.70;;;29.30;32.70;;;;;;5094885;28;20035;-72
2022/06/03 13:15:20;;;;;;;1.15;0.75;;;29.60;33.70;;;;;;5093615;28;20028;-71
2022/06/03 13:18:20;;;;;;;3.65;0.80;;;29.70;31.80;;;;;;5091179;28;20036;-72
2022/06/03 13:21:02;;;;;;;1.30;0.68;;;30.10;34.10;;;;;;5094386;28;20099;-72
2022/06/03 13:23:54;;;;;;;0.93;0.55;;;30.10;33.20;;;;;;5085637;28;20028;-72
2022/06/03 13:26:22;;;;;;;3.08;0.60;;;29.90;31.90;;;;;;5082579;28;20028;-71
2022/06/03 13:29:04;;;;;;;2.58;0.60;;;30.00;32.20;;;;;;5094282;28;20470;-71
2022/06/03 13:31:42;;;;;;;0.95;0.60;;;30.30;32.80;;;;;;5093775;28;20028;-71
2022/06/03 13:34:10;;;;;;;2.33;0.80;;;30.00;29.80;;;;;;5093276;28;20435;-72
2022/06/03 13:36:55;;;;;;;2.30;0.82;;;30.00;32.30;;;;;;5093847;28;20044;-72
2022/06/03 13:39:24;;;;;;;1.58;0.68;;;29.80;30.80;;;;;;5093125;28;20069;-71
2022/06/03 13:45:01;;;;;;;2.10;0.77;;;31.00;32.00;;;;;;5089563;28;20023;-71
2022/06/03 13:47:34;;;;;;;2.00;0.85;;;30.70;32.00;;;;;;5094234;28;20028;-72
2022/06/03 13:50:11;;;;;;;19.52;5.97;;;30.60;32.50;;;;;;5093972;28;20024;-72
2022/06/03 13:52:40;;;;;;;3.67;0.73;;;30.50;27.90;;;;;;5088296;28;20413;-72
2022/06/03 13:55:16;;;;;;;3.55;0.90;;;30.30;30.60;;;;;;5088897;28;20020;-71
2022/06/03 13:57:51;;;;;;;3.50;0.82;;;30.40;31.30;;;;;;5080699;28;20484;-71
2022/06/03 14:00:19;;;;;;;1.38;0.65;;;29.40;32.50;;;;;;5091029;28;20047;-71
2022/06/03 14:02:47;;;;;;;1.00;0.77;;;29.40;32.10;;;;;;5093822;28;20479;-71
2022/06/03 14:05:47;;;;;;;2.58;0.95;;;29.70;29.50;;;;;;5093427;28;20032;-71
2022/06/03 14:08:19;;;;;;;4.00;1.20;;;30.70;32.80;;;;;;5090911;28;20086;-72
2022/06/03 14:11:06;;;;;;;1.55;0.60;;;30.70;30.20;;;;;;5087440;28;20032;-72
2022/06/03 14:13:42;;;;;;;0.68;0.50;;;31.00;32.50;;;;;;5090616;28;20056;-72
2022/06/03 14:16:46;;;;;;;1.42;0.55;;;31.80;30.60;;;;;;5090885;28;20032;-72
2022/06/03 14:19:11;;;;;;;1.35;0.60;;;31.50;29.20;;;;;;5089809;28;20609;-72
2022/06/03 14:21:49;;;;;;;1.77;0.63;;;31.80;29.10;;;;;;5080768;28;20045;-72
2022/06/03 14:24:29;;;;;;;4.32;0.80;;;31.30;29.30;;;;;;5092609;28;20039;-72
2022/06/03 14:26:59;;;;;;;1.08;0.50;;;31.70;30.70;;;;;;5092830;28;20025;-72
2022/06/03 14:29:40;;;;;;;1.33;0.55;;;31.90;28.00;;;;;;5085362;28;20040;-71
2022/06/03 14:32:12;;;;;;;2.45;0.80;;;31.30;29.00;;;;;;5090079;28;20490;-72
2022/06/03 14:34:42;;;;;;;2.60;0.80;;;30.40;29.20;;;;;;5087724;28;20940;-72